createdAt,value
2019-05-26T00:02:45.692Z,79.15
2019-05-26T00:07:39.748Z,79.06
2019-05-26T00:12:33.702Z,79.45
2019-05-26T00:17:27.672Z,80.81
2019-05-26T00:22:21.846Z,80.36
2019-05-26T00:27:16.127Z,80.89
2019-05-26T00:32:10.091Z,80.58
2019-05-26T00:37:04.394Z,81.08
2019-05-26T00:41:58.362Z,80.86
2019-05-26T00:46:52.371Z,80.94
2019-05-26T00:51:46.416Z,81.19
2019-05-26T00:56:40.471Z,81.65
2019-05-26T01:01:34.435Z,81.75
2019-05-26T01:06:28.379Z,81.97
2019-05-26T01:11:22.350Z,82.87
2019-05-26T01:16:16.364Z,82.65
2019-05-26T01:21:10.339Z,82.07
2019-05-26T01:26:04.513Z,81.53
2019-05-26T01:30:58.471Z,81.43
2019-05-26T01:35:52.642Z,81.54
2019-05-26T01:40:48.620Z,80.58
2019-05-26T01:45:42.622Z,79.57
2019-05-26T01:50:36.567Z,78.97
2019-05-26T01:55:30.525Z,78.70
2019-05-26T02:00:24.826Z,77.76
2019-05-26T02:05:18.801Z,78.15
2019-05-26T02:10:13.247Z,78.95
2019-05-26T02:15:08.237Z,79.22
2019-05-26T02:20:04.010Z,78.55
2019-05-26T02:24:57.985Z,78.77
2019-05-26T02:29:53.231Z,77.96
2019-05-26T02:34:47.212Z,77.50
2019-05-26T02:39:43.953Z,77.36
2019-05-26T02:44:37.911Z,77.53
2019-05-26T02:49:32.014Z,77.45
2019-05-26T02:54:25.984Z,77.31
2019-05-26T02:59:20.036Z,77.57
2019-05-26T03:04:14.304Z,78.65
2019-05-26T03:09:21.780Z,79.04
2019-05-26T03:14:04.362Z,79.22
2019-05-26T03:18:58.481Z,79.99
2019-05-26T03:23:55.743Z,79.98
2019-05-26T03:28:49.816Z,79.40
2019-05-26T03:33:43.760Z,79.93
2019-05-26T03:38:37.739Z,80.63
2019-05-26T03:43:31.904Z,81.60
2019-05-26T03:48:25.899Z,81.86
2019-05-26T03:53:19.854Z,81.79
2019-05-26T03:58:13.817Z,82.02
2019-05-26T04:03:07.905Z,82.34
2019-05-26T04:08:05.668Z,82.42
2019-05-26T04:12:59.815Z,82.67
2019-05-26T04:17:53.788Z,82.57
2019-05-26T04:22:47.948Z,82.14
2019-05-26T04:27:41.930Z,82.23
2019-05-26T04:32:35.874Z,82.54
2019-05-26T04:37:29.846Z,82.37
2019-05-26T04:42:26.436Z,81.98
2019-05-26T04:47:20.413Z,81.75
2019-05-26T04:52:16.264Z,81.42
2019-05-26T04:57:10.320Z,80.64
2019-05-26T05:02:04.355Z,79.83
2019-05-26T05:06:58.326Z,78.84
2019-05-26T05:11:52.287Z,78.03
2019-05-26T05:16:46.273Z,77.28
2019-05-26T05:21:40.218Z,77.46
2019-05-26T05:26:34.276Z,78.27
2019-05-26T05:31:28.248Z,78.14
2019-05-26T05:36:22.205Z,77.25
2019-05-26T05:41:16.172Z,76.91
2019-05-26T05:46:10.191Z,77.56
2019-05-26T05:51:04.366Z,76.69
2019-05-26T05:55:58.325Z,76.63
2019-05-26T06:00:52.286Z,76.68
2019-05-26T06:05:46.245Z,76.35
2019-05-26T06:10:40.303Z,76.00
2019-05-26T06:15:34.261Z,75.85
2019-05-26T06:20:28.331Z,75.12
2019-05-26T06:25:22.323Z,74.51
2019-05-26T06:30:16.690Z,73.81
2019-05-26T06:35:10.867Z,74.36
2019-05-26T06:40:06.155Z,73.78
2019-05-26T06:45:00.127Z,72.46
2019-05-26T06:49:55.993Z,70.74
2019-05-26T06:54:49.949Z,70.62
2019-05-26T06:59:43.912Z,69.89
2019-05-26T07:04:37.917Z,69.34
2019-05-26T07:09:31.864Z,67.31
2019-05-26T07:14:25.827Z,64.03
2019-05-26T07:19:19.815Z,63.90
2019-05-26T07:24:13.768Z,61.78
2019-05-26T07:29:08.132Z,59.45
2019-05-26T07:34:02.098Z,60.14
2019-05-26T07:38:56.103Z,59.51
2019-05-26T07:43:50.101Z,59.51
2019-05-26T07:48:44.060Z,59.61
2019-05-26T07:53:38.160Z,59.15
2019-05-26T07:58:32.262Z,60.00
2019-05-26T08:03:26.223Z,60.84
2019-05-26T08:08:20.185Z,61.12
2019-05-26T08:13:14.161Z,61.32
2019-05-26T08:18:08.241Z,60.41
2019-05-26T08:23:04.767Z,61.43
2019-05-26T08:27:58.762Z,60.60
2019-05-26T08:32:52.761Z,60.04
2019-05-26T08:37:46.865Z,60.29
2019-05-26T08:42:44.832Z,59.24
2019-05-26T08:47:40.532Z,58.90
2019-05-26T08:52:34.512Z,59.20
2019-05-26T08:57:30.373Z,58.11
2019-05-26T09:02:24.346Z,57.16
2019-05-26T09:07:18.457Z,53.20
2019-05-26T09:12:12.450Z,49.12
2019-05-26T09:17:06.444Z,46.67
2019-05-26T09:22:00.588Z,46.50
2019-05-26T09:26:54.684Z,44.38
2019-05-26T09:31:48.894Z,44.35
2019-05-26T09:36:42.886Z,43.27
2019-05-26T09:41:36.938Z,44.00
2019-05-26T09:46:31.151Z,43.32
2019-05-26T09:51:25.095Z,44.02
2019-05-26T09:56:19.155Z,44.16
2019-05-26T10:01:13.213Z,44.58
2019-05-26T10:06:07.300Z,46.16
2019-05-26T10:11:03.701Z,46.10
2019-05-26T10:15:57.688Z,46.76
2019-05-26T10:20:51.701Z,46.02
2019-05-26T10:25:45.684Z,45.25
2019-05-26T10:30:39.712Z,44.44
2019-05-26T10:35:33.798Z,45.94
2019-05-26T10:40:29.384Z,46.75
2019-05-26T10:45:23.405Z,45.50
2019-05-26T10:50:17.510Z,44.05
2019-05-26T10:55:11.709Z,44.42
2019-05-26T11:00:09.440Z,45.17
2019-05-26T11:05:05.570Z,45.24
2019-05-26T11:09:59.481Z,43.99
2019-05-26T11:14:53.475Z,43.92
2019-05-26T11:19:47.595Z,43.46
2019-05-26T11:24:41.734Z,43.77
2019-05-26T11:29:35.708Z,44.23
2019-05-26T11:34:29.986Z,43.62
2019-05-26T11:39:23.973Z,43.69
2019-05-26T11:44:18.564Z,43.88
2019-05-26T11:49:12.762Z,42.92
2019-05-26T11:54:08.741Z,43.41
2019-05-26T11:59:05.575Z,44.60
2019-05-26T12:03:59.707Z,44.61
2019-05-26T12:08:53.812Z,44.13
2019-05-26T12:13:47.912Z,43.21
2019-05-26T12:18:41.910Z,43.92
2019-05-26T12:23:36.013Z,44.60
2019-05-26T12:28:30.103Z,44.11
2019-05-26T12:33:24.211Z,44.58
2019-05-26T12:38:18.196Z,43.99
2019-05-26T12:43:12.438Z,43.76
2019-05-26T12:48:06.554Z,43.63
2019-05-26T12:53:00.777Z,44.81
2019-05-26T12:57:56.796Z,44.26
2019-05-26T13:02:50.907Z,43.88
2019-05-26T13:07:44.962Z,43.94
2019-05-26T13:12:39.034Z,44.41
2019-05-26T13:17:33.218Z,44.40
2019-05-26T13:22:27.196Z,43.36
2019-05-26T13:27:21.219Z,43.30
2019-05-26T13:32:15.192Z,43.16
2019-05-26T13:37:09.154Z,44.97
2019-05-26T13:42:03.492Z,44.86
2019-05-26T13:46:57.475Z,42.73
2019-05-26T13:51:51.584Z,42.64
2019-05-26T13:56:45.787Z,41.44
2019-05-26T14:01:41.716Z,42.89
2019-05-26T14:06:35.724Z,41.17
2019-05-26T14:11:29.834Z,40.61
2019-05-26T14:16:25.320Z,41.10
2019-05-26T14:21:19.488Z,43.32
2019-05-26T14:26:13.577Z,44.26
2019-05-26T14:31:07.571Z,46.25
2019-05-26T14:36:01.710Z,48.17
2019-05-26T14:40:55.758Z,49.03
2019-05-26T14:45:53.651Z,48.90
2019-05-26T14:50:49.057Z,48.70
2019-05-26T14:55:43.130Z,47.67
2019-05-26T15:00:37.236Z,48.21
2019-05-26T15:05:31.353Z,48.95
2019-05-26T15:10:25.544Z,49.25
2019-05-26T15:15:19.781Z,49.81
2019-05-26T15:20:14.291Z,50.50
2019-05-26T15:25:08.363Z,51.26
2019-05-26T15:30:04.684Z,51.92
2019-05-26T15:35:00.072Z,52.26
2019-05-26T15:39:54.212Z,52.27
2019-05-26T15:44:49.480Z,51.38
2019-05-26T15:49:43.560Z,50.97
2019-05-26T15:54:37.536Z,51.04
2019-05-26T15:59:31.622Z,51.18
2019-05-26T16:04:25.807Z,51.31
2019-05-26T16:09:19.818Z,51.52
2019-05-26T16:14:13.800Z,51.04
2019-05-26T16:19:07.819Z,50.84
2019-05-26T16:24:01.813Z,51.12
2019-05-26T16:28:56.144Z,52.19
2019-05-26T16:33:50.148Z,52.19
2019-05-26T16:38:44.256Z,52.63
2019-05-26T16:43:38.562Z,51.92
2019-05-26T16:48:32.663Z,51.36
2019-05-26T16:53:26.780Z,50.58
2019-05-26T16:58:20.787Z,50.30
2019-05-26T17:03:14.897Z,50.05
2019-05-26T17:08:08.975Z,49.98
2019-05-26T17:13:03.251Z,50.76
2019-05-26T17:17:57.239Z,51.86
2019-05-26T17:22:51.334Z,52.83
2019-05-26T17:27:45.439Z,53.92
2019-05-26T17:32:39.469Z,54.39
2019-05-26T17:37:33.588Z,54.29
2019-05-26T17:42:27.743Z,54.54
2019-05-26T17:47:30.231Z,54.25
2019-05-26T17:52:18.559Z,53.54
2019-05-26T17:57:12.686Z,52.51
2019-05-26T18:02:06.786Z,52.07
2019-05-26T18:07:00.945Z,51.73
2019-05-26T18:11:55.221Z,51.96
2019-05-26T18:16:49.304Z,52.09
2019-05-26T18:21:43.487Z,52.87
2019-05-26T18:26:37.677Z,53.17
2019-05-26T18:31:31.903Z,53.77
2019-05-26T18:36:26.210Z,54.43
2019-05-26T18:41:20.426Z,54.63
2019-05-26T18:46:14.696Z,55.10
2019-05-26T18:51:08.904Z,55.81
2019-05-26T18:56:03.414Z,56.71
2019-05-26T19:00:57.693Z,57.25
2019-05-26T19:05:51.957Z,57.86
2019-05-26T19:10:46.395Z,58.65
2019-05-26T19:15:40.624Z,59.12
2019-05-26T19:20:36.381Z,59.51
2019-05-26T19:25:42.269Z,59.82
2019-05-26T19:30:36.460Z,60.61
2019-05-26T19:35:30.448Z,60.19
2019-05-26T19:40:24.487Z,60.28
2019-05-26T19:45:18.803Z,60.16
2019-05-26T19:50:13.302Z,59.65
2019-05-26T19:55:07.482Z,58.84
2019-05-26T20:00:13.382Z,58.66
2019-05-26T20:05:07.840Z,58.90
2019-05-26T20:10:06.479Z,57.06
2019-05-26T20:15:06.511Z,56.47
2019-05-26T20:20:00.711Z,56.84
2019-05-26T20:24:54.801Z,57.21
2019-05-26T20:29:49.027Z,57.05
2019-05-26T20:34:43.146Z,56.37
2019-05-26T20:39:37.242Z,55.55
2019-05-26T20:44:31.220Z,55.91
2019-05-26T20:49:25.385Z,56.06
2019-05-26T20:54:19.476Z,56.55
2019-05-26T20:59:13.660Z,57.10
2019-05-26T21:04:07.747Z,57.78
2019-05-26T21:09:01.736Z,58.87
2019-05-26T21:13:55.711Z,60.16
2019-05-26T21:18:49.696Z,61.42
2019-05-26T21:23:43.798Z,62.09
2019-05-26T21:28:37.824Z,62.89
2019-05-26T21:33:31.929Z,63.77
2019-05-26T21:38:27.821Z,64.37
2019-05-26T21:43:21.810Z,65.23
2019-05-26T21:48:15.796Z,66.26
2019-05-26T21:53:09.797Z,67.31
2019-05-26T21:58:03.956Z,68.40
2019-05-26T22:02:58.062Z,69.64
2019-05-26T22:07:52.272Z,70.15
2019-05-26T22:12:46.487Z,70.66
2019-05-26T22:17:40.502Z,71.13
2019-05-26T22:22:34.546Z,71.72
2019-05-26T22:27:28.521Z,72.33
2019-05-26T22:32:22.673Z,72.72
2019-05-26T22:37:16.600Z,72.94
2019-05-26T22:42:10.601Z,73.30
2019-05-26T22:47:04.599Z,73.63
2019-05-26T22:51:58.581Z,73.11
2019-05-26T22:56:52.660Z,72.84
2019-05-26T23:01:46.728Z,72.73
2019-05-26T23:06:40.710Z,72.69
2019-05-26T23:11:35.078Z,72.71
2019-05-26T23:16:29.119Z,72.33
2019-05-26T23:21:23.221Z,72.21
2019-05-26T23:26:17.180Z,71.72
2019-05-26T23:31:11.176Z,71.78
2019-05-26T23:36:05.250Z,71.72
2019-05-26T23:40:59.243Z,71.75
2019-05-26T23:45:53.309Z,71.31
2019-05-26T23:50:47.292Z,71.16
2019-05-26T23:55:41.258Z,72.56
